Time;durP1;ratioP1;P1;durP2;ratioP2;P2;SDS_P1;SDS_P2;PMS_P1;PMS_P2;Temp;Humidity;BMP_temperature;BMP_pressure;BME280_temperature;BME280_humidity;BME280_pressure;Samples;Min_cycle;Max_cycle;Signal;HPM_P1;HPM_P2
2023/05/14 00:00:19;;;;;;;8.02;1.63;;;39.00;19.20;;;;;;5011943;28;20024;-65
2023/05/14 00:02:45;;;;;;;6.90;1.45;;;39.00;18.60;;;;;;5013294;28;20029;-64
2023/05/14 00:05:11;;;;;;;7.40;1.33;;;38.90;19.60;;;;;;5006909;28;20112;-65
2023/05/14 00:07:38;;;;;;;6.50;1.73;;;38.90;19.10;;;;;;5004824;28;20034;-66
2023/05/14 00:10:05;;;;;;;4.68;1.50;;;38.80;20.90;;;;;;5007154;28;20030;-65
2023/05/14 00:12:32;;;;;;;5.45;1.50;;;38.80;19.10;;;;;;5012690;28;20034;-64
2023/05/14 00:14:58;;;;;;;5.22;1.40;;;38.70;19.20;;;;;;5011703;28;20017;-65
2023/05/14 00:17:25;;;;;;;5.00;1.63;;;38.70;19.20;;;;;;5021057;28;20021;-64
2023/05/14 00:19:51;;;;;;;12.63;2.30;;;38.60;19.90;;;;;;5013817;28;20018;-61
2023/05/14 00:22:18;;;;;;;3.63;1.40;;;38.50;20.10;;;;;;5013265;28;20101;-64
2023/05/14 00:24:44;;;;;;;8.82;1.63;;;38.50;19.10;;;;;;5011198;28;20072;-65
2023/05/14 00:27:11;;;;;;;3.53;1.73;;;38.40;19.60;;;;;;5012118;28;20036;-62
2023/05/14 00:29:37;;;;;;;4.88;1.70;;;38.40;19.40;;;;;;5013347;28;20431;-63
2023/05/14 00:32:04;;;;;;;7.40;1.70;;;38.30;19.60;;;;;;5013981;28;20036;-65
2023/05/14 00:34:30;;;;;;;5.47;1.52;;;38.30;18.80;;;;;;4993396;28;20033;-62
2023/05/14 00:36:56;;;;;;;5.90;1.60;;;38.20;19.50;;;;;;5013458;28;20446;-64
2023/05/14 00:39:23;;;;;;;6.68;1.73;;;38.20;19.80;;;;;;5011772;28;20025;-62
2023/05/14 00:41:49;;;;;;;6.55;1.20;;;38.20;20.10;;;;;;5012888;28;20033;-64
2023/05/14 00:44:16;;;;;;;5.63;1.80;;;38.10;19.50;;;;;;5014837;28;20109;-64
2023/05/14 00:46:42;;;;;;;9.35;1.75;;;38.00;20.10;;;;;;5018576;28;20036;-63
2023/05/14 00:49:09;;;;;;;7.53;1.50;;;37.90;20.40;;;;;;5017583;28;20018;-66
2023/05/14 00:51:36;;;;;;;7.88;1.30;;;37.80;20.20;;;;;;5021216;28;20042;-66
2023/05/14 00:54:03;;;;;;;8.43;1.27;;;37.70;20.20;;;;;;5021084;28;20029;-64
2023/05/14 00:56:30;;;;;;;7.05;1.80;;;37.70;19.40;;;;;;5021672;28;20397;-65
2023/05/14 00:58:57;;;;;;;12.65;1.63;;;37.60;20.10;;;;;;5002828;28;20460;-64
2023/05/14 01:01:23;;;;;;;5.28;1.65;;;37.50;19.80;;;;;;5018931;28;20037;-65
2023/05/14 01:03:52;;;;;;;10.20;1.65;;;37.50;18.80;;;;;;5018900;28;20060;-66
2023/05/14 01:06:45;;;;;;;4.93;1.55;;;37.40;19.90;;;;;;5019979;28;20057;-65
2023/05/14 01:09:44;;;;;;;5.78;1.58;;;37.40;20.30;;;;;;5016802;28;20021;-66
2023/05/14 01:12:33;;;;;;;4.63;1.65;;;37.30;19.90;;;;;;4966105;28;20087;-65
2023/05/14 01:15:15;;;;;;;6.07;1.73;;;37.30;19.40;;;;;;4970077;28;20451;-66
2023/05/14 01:18:08;;;;;;;4.40;1.20;;;37.20;19.50;;;;;;4968761;28;20054;-64
2023/05/14 01:20:35;;;;;;;2.50;1.27;;;37.10;19.50;;;;;;4968781;28;20501;-65
2023/05/14 01:23:02;;;;;;;9.10;1.77;;;37.10;19.80;;;;;;4968763;28;20054;-67
2023/05/14 01:25:29;;;;;;;26.88;10.02;;;37.10;19.60;;;;;;4969770;28;20034;-66
2023/05/14 01:28:00;;;;;;;24.08;9.65;;;37.00;19.90;;;;;;4966765;28;20054;-67
2023/05/14 01:30:36;;;;;;;18.70;9.43;;;37.20;19.90;;;;;;4970809;28;20035;-66
2023/05/14 01:33:08;;;;;;;5.13;1.90;;;37.30;19.90;;;;;;4973808;28;20037;-66
2023/05/14 01:35:35;;;;;;;9.18;2.03;;;37.40;20.00;;;;;;4970368;28;20186;-65
2023/05/14 01:38:05;;;;;;;4.57;1.40;;;37.50;19.60;;;;;;4970774;28;20019;-64
2023/05/14 01:40:33;;;;;;;4.13;1.40;;;37.60;19.90;;;;;;4970921;28;20049;-64
2023/05/14 01:43:01;;;;;;;5.72;1.92;;;37.40;20.40;;;;;;4970435;28;20124;-65
2023/05/14 01:45:27;;;;;;;13.77;1.60;;;37.30;20.40;;;;;;4970256;28;20568;-65
2023/05/14 01:47:54;;;;;;;4.75;1.73;;;37.20;20.20;;;;;;4964639;28;20132;-64
2023/05/14 01:50:20;;;;;;;5.47;1.42;;;37.30;19.00;;;;;;5011410;28;20415;-63
2023/05/14 01:52:52;;;;;;;3.65;1.35;;;37.70;20.20;;;;;;5013125;28;20046;-64
2023/05/14 01:55:19;;;;;;;6.78;2.00;;;38.30;19.80;;;;;;5013485;28;20052;-66
2023/05/14 01:57:45;;;;;;;7.30;1.80;;;38.50;19.60;;;;;;4996880;28;20034;-65
2023/05/14 02:00:12;;;;;;;8.93;1.80;;;38.20;20.00;;;;;;5014780;28;20420;-65
2023/05/14 02:02:38;;;;;;;5.93;1.95;;;37.60;20.50;;;;;;5014278;28;20047;-66
2023/05/14 02:05:05;;;;;;;13.38;2.17;;;37.20;20.50;;;;;;5015139;28;20925;-64
2023/05/14 02:07:32;;;;;;;11.63;1.92;;;36.80;20.90;;;;;;5013952;28;20484;-65
2023/05/14 02:09:58;;;;;;;7.75;1.95;;;36.40;21.10;;;;;;4997185;28;20030;-65
2023/05/14 02:12:25;;;;;;;7.30;1.73;;;36.10;21.50;;;;;;5014102;28;20034;-65
2023/05/14 02:14:51;;;;;;;6.38;2.10;;;35.90;21.20;;;;;;5015043;28;20029;-65
2023/05/14 02:17:19;;;;;;;7.28;1.77;;;35.70;21.30;;;;;;5011551;28;20068;-65
2023/05/14 02:19:45;;;;;;;16.67;2.63;;;35.50;22.10;;;;;;5014026;28;20041;-65
2023/05/14 02:22:12;;;;;;;13.10;2.53;;;35.30;22.00;;;;;;5014547;28;20018;-65
2023/05/14 02:24:38;;;;;;;14.48;2.47;;;35.10;22.40;;;;;;5013659;28;20018;-65
2023/05/14 02:27:05;;;;;;;7.10;2.25;;;34.90;22.10;;;;;;5013533;28;20058;-65
2023/05/14 02:29:32;;;;;;;11.18;2.30;;;34.80;22.30;;;;;;5012364;28;20529;-65
2023/05/14 02:31:58;;;;;;;8.73;2.50;;;34.50;22.70;;;;;;5013363;28;20037;-64
2023/05/14 02:34:24;;;;;;;6.57;1.90;;;34.40;22.90;;;;;;5013659;28;20033;-65
2023/05/14 02:36:51;;;;;;;11.75;2.15;;;34.20;23.30;;;;;;5011387;28;20018;-65
2023/05/14 02:39:17;;;;;;;7.60;2.05;;;34.00;23.00;;;;;;5012046;28;20022;-65
2023/05/14 02:41:43;;;;;;;9.07;3.05;;;33.80;23.90;;;;;;5010943;28;20084;-65
2023/05/14 02:44:10;;;;;;;12.15;2.50;;;33.80;23.90;;;;;;5011628;28;20030;-66
2023/05/14 02:46:36;;;;;;;14.45;2.70;;;33.60;24.70;;;;;;5011708;28;20872;-65
2023/05/14 02:49:03;;;;;;;13.13;3.08;;;33.50;24.40;;;;;;5017349;28;20354;-65
2023/05/14 02:51:29;;;;;;;15.63;2.38;;;33.30;24.50;;;;;;5014415;28;20018;-66
2023/05/14 02:53:55;;;;;;;11.65;2.47;;;33.20;25.00;;;;;;5013944;28;20055;-66
2023/05/14 02:56:22;;;;;;;13.60;2.05;;;33.20;24.70;;;;;;5013383;28;20022;-64
2023/05/14 02:58:48;;;;;;;15.02;2.90;;;33.10;24.40;;;;;;5013584;28;20030;-67
2023/05/14 03:01:15;;;;;;;16.02;2.20;;;33.00;24.50;;;;;;5019010;28;20028;-66
2023/05/14 03:03:41;;;;;;;13.25;2.80;;;32.90;24.30;;;;;;5011685;28;20652;-65
2023/05/14 03:06:08;;;;;;;17.23;2.38;;;32.80;24.50;;;;;;5012512;28;20091;-66
2023/05/14 03:08:35;;;;;;;15.52;2.40;;;32.70;24.70;;;;;;4991651;28;20412;-64
2023/05/14 03:11:01;;;;;;;14.55;2.50;;;32.70;25.00;;;;;;5014106;28;20048;-66
2023/05/14 03:13:28;;;;;;;8.23;2.03;;;32.50;24.80;;;;;;5014135;28;20139;-65
2023/05/14 03:15:55;;;;;;;12.07;2.75;;;32.50;25.00;;;;;;5017492;28;20388;-67
2023/05/14 03:18:22;;;;;;;13.68;3.20;;;32.40;24.70;;;;;;4999190;28;20101;-65
2023/05/14 03:20:48;;;;;;;13.50;3.45;;;32.30;24.40;;;;;;5013794;28;20047;-65
2023/05/14 03:23:15;;;;;;;15.68;3.35;;;32.30;24.60;;;;;;5012063;28;20052;-65
2023/05/14 03:25:41;;;;;;;18.65;3.60;;;32.10;24.40;;;;;;5011937;28;20494;-65
2023/05/14 03:28:08;;;;;;;19.08;4.05;;;32.10;25.00;;;;;;5013851;28;20090;-66
2023/05/14 03:30:35;;;;;;;23.08;4.72;;;32.10;25.60;;;;;;5012102;28;20038;-66
2023/05/14 03:33:01;;;;;;;21.33;5.05;;;32.00;25.10;;;;;;5011397;28;20103;-66
2023/05/14 03:35:27;;;;;;;18.55;4.82;;;31.90;25.20;;;;;;5012179;28;20105;-66
2023/05/14 03:37:57;;;;;;;20.98;5.82;;;31.90;25.70;;;;;;5012680;28;20032;-66
2023/05/14 03:40:23;;;;;;;22.58;5.95;;;31.70;25.30;;;;;;5012603;28;20491;-65
2023/05/14 03:42:49;;;;;;;21.50;6.05;;;31.70;25.40;;;;;;5013222;28;20044;-66
2023/05/14 03:45:16;;;;;;;24.10;6.00;;;31.70;26.50;;;;;;5011080;28;20030;-66
2023/05/14 03:47:42;;;;;;;22.02;6.32;;;31.50;25.80;;;;;;5011775;28;20029;-67
2023/05/14 03:50:09;;;;;;;18.23;5.90;;;31.50;26.60;;;;;;5011069;28;20040;-66
2023/05/14 03:52:35;;;;;;;22.48;6.90;;;31.40;27.00;;;;;;5011884;28;20072;-66
2023/05/14 03:55:02;;;;;;;25.73;6.57;;;31.30;27.40;;;;;;5013650;28;20042;-67
2023/05/14 03:57:29;;;;;;;24.65;7.00;;;31.20;27.70;;;;;;5014626;28;20538;-67
2023/05/14 03:59:55;;;;;;;38.40;8.18;;;31.20;28.40;;;;;;5010774;28;20113;-67
2023/05/14 04:02:21;;;;;;;22.13;8.68;;;31.00;28.10;;;;;;5011929;28;20067;-67
2023/05/14 04:04:48;;;;;;;42.35;10.93;;;30.90;28.70;;;;;;5015279;28;20064;-67
2023/05/14 04:07:14;;;;;;;66.75;13.00;;;30.90;27.40;;;;;;5014060;28;20128;-66
2023/05/14 04:09:41;;;;;;;48.10;12.57;;;30.80;27.60;;;;;;5009706;28;20469;-66
2023/05/14 04:12:07;;;;;;;51.53;13.90;;;30.80;27.90;;;;;;5011035;28;20052;-65
2023/05/14 04:14:34;;;;;;;68.15;13.48;;;30.80;27.40;;;;;;5013125;28;20040;-65
2023/05/14 04:17:00;;;;;;;57.58;12.80;;;30.90;27.30;;;;;;5012053;28;20034;-66
2023/05/14 04:19:26;;;;;;;65.07;13.10;;;30.90;26.80;;;;;;5010603;28;20077;-66
2023/05/14 04:21:53;;;;;;;44.72;11.75;;;30.90;26.10;;;;;;5012666;28;20060;-66
2023/05/14 04:24:19;;;;;;;46.50;10.15;;;30.90;25.50;;;;;;5015732;28;20123;-65
2023/05/14 04:26:46;;;;;;;49.90;10.10;;;31.00;25.70;;;;;;5014431;28;20434;-65
2023/05/14 04:29:12;;;;;;;42.85;8.90;;;31.20;25.10;;;;;;5012903;28;20104;-67
2023/05/14 04:31:38;;;;;;;35.10;7.75;;;31.30;25.10;;;;;;5009860;28;20030;-65
2023/05/14 04:34:05;;;;;;;38.10;8.35;;;31.40;25.20;;;;;;5015310;28;20106;-65
2023/05/14 04:36:32;;;;;;;52.85;8.82;;;31.50;25.20;;;;;;5009980;28;20076;-67
2023/05/14 04:38:58;;;;;;;33.75;8.77;;;31.50;26.00;;;;;;5015695;28;20033;-66
2023/05/14 04:41:25;;;;;;;42.28;9.02;;;31.60;25.80;;;;;;5014135;28;20055;-66
2023/05/14 04:43:54;;;;;;;43.78;9.32;;;31.60;26.80;;;;;;5017164;28;20059;-66
2023/05/14 04:46:21;;;;;;;49.13;8.90;;;31.60;26.50;;;;;;5015115;28;20069;-63
2023/05/14 04:48:49;;;;;;;41.30;9.07;;;31.60;26.00;;;;;;5010937;28;20051;-66
2023/05/14 04:51:15;;;;;;;42.88;8.23;;;31.60;26.90;;;;;;5010719;28;20026;-64
2023/05/14 04:53:42;;;;;;;58.22;9.32;;;31.50;27.10;;;;;;5020631;28;20045;-66
2023/05/14 04:56:08;;;;;;;59.67;8.30;;;31.40;27.50;;;;;;4995221;28;20037;-65
2023/05/14 04:58:35;;;;;;;56.60;8.57;;;31.40;27.50;;;;;;5020973;28;20123;-66
2023/05/14 05:01:03;;;;;;;34.95;7.60;;;31.30;28.40;;;;;;5006344;28;20032;-65
2023/05/14 05:03:30;;;;;;;39.38;8.43;;;31.20;29.20;;;;;;5001825;28;20093;-67
2023/05/14 05:05:56;;;;;;;50.80;8.65;;;31.00;28.90;;;;;;5028512;28;20039;-68
2023/05/14 05:08:23;;;;;;;51.80;8.82;;;31.00;29.70;;;;;;5025004;28;20119;-66
2023/05/14 05:10:49;;;;;;;45.60;7.75;;;30.90;30.00;;;;;;5020118;28;20048;-66
2023/05/14 05:13:15;;;;;;;60.97;11.18;;;30.70;30.60;;;;;;5024264;28;20049;-65
2023/05/14 05:15:42;;;;;;;60.67;11.50;;;30.70;28.70;;;;;;5023013;28;20085;-65
2023/05/14 05:18:09;;;;;;;48.55;10.57;;;30.70;28.80;;;;;;5023237;28;20028;-67
2023/05/14 05:20:35;;;;;;;51.45;8.65;;;30.70;28.10;;;;;;5019037;28;20102;-66
2023/05/14 05:23:02;;;;;;;35.17;6.97;;;30.70;27.10;;;;;;5021117;28;20036;-66
2023/05/14 05:25:28;;;;;;;35.70;6.20;;;30.70;27.70;;;;;;5022633;28;20542;-67
2023/05/14 05:27:54;;;;;;;35.75;6.35;;;30.70;27.60;;;;;;5024231;28;20044;-67
2023/05/14 05:30:21;;;;;;;25.17;5.40;;;30.60;27.60;;;;;;5022548;28;20041;-70
2023/05/14 05:32:47;;;;;;;36.42;5.38;;;30.70;27.10;;;;;;5020922;28;20065;-66
2023/05/14 05:35:14;;;;;;;33.70;4.93;;;30.70;27.30;;;;;;5019641;28;20409;-65
2023/05/14 05:37:41;;;;;;;30.25;5.25;;;30.60;27.40;;;;;;5019752;28;20124;-66
2023/05/14 05:40:09;;;;;;;23.60;5.13;;;30.60;27.90;;;;;;5019212;28;20044;-67
2023/05/14 05:42:35;;;;;;;28.15;5.38;;;30.60;27.50;;;;;;5023080;28;20042;-66
2023/05/14 05:45:01;;;;;;;24.83;5.30;;;30.50;28.30;;;;;;5023592;28;20041;-67
2023/05/14 05:47:28;;;;;;;34.33;5.95;;;30.40;28.50;;;;;;5021759;28;20480;-65
2023/05/14 05:49:55;;;;;;;18.75;5.15;;;30.40;28.70;;;;;;5013951;28;20042;-66
2023/05/14 05:52:22;;;;;;;34.20;5.68;;;30.30;29.00;;;;;;5014254;28;20071;-66
2023/05/14 05:54:48;;;;;;;36.25;11.68;;;30.30;28.90;;;;;;5014444;28;20507;-64
2023/05/14 05:57:14;;;;;;;34.67;15.63;;;30.20;29.20;;;;;;5013647;28;20045;-65
2023/05/14 05:59:41;;;;;;;34.67;13.82;;;30.10;28.90;;;;;;5014551;28;20390;-65
2023/05/14 06:04:20;;;;;;;26.70;7.50;;;29.90;29.70;;;;;;5067867;27;20419;-66
2023/05/14 06:06:46;;;;;;;38.75;8.70;;;29.90;29.30;;;;;;5066266;28;20072;-66
2023/05/14 06:09:13;;;;;;;51.47;11.38;;;29.80;29.80;;;;;;5066230;28;20107;-65
2023/05/14 06:11:39;;;;;;;75.07;14.80;;;29.70;29.10;;;;;;5062302;28;20091;-61
2023/05/14 06:14:06;;;;;;;76.57;15.13;;;29.70;29.70;;;;;;5062886;28;20046;-65
2023/05/14 06:16:32;;;;;;;90.28;13.82;;;29.70;29.90;;;;;;5062105;28;20482;-66
2023/05/14 06:18:59;;;;;;;75.18;14.13;;;29.70;29.90;;;;;;5062879;28;20051;-65
2023/05/14 06:21:25;;;;;;;63.35;12.52;;;29.70;29.70;;;;;;5063785;28;20043;-64
2023/05/14 06:23:51;;;;;;;72.88;13.07;;;29.70;29.90;;;;;;5064756;28;20554;-64
2023/05/14 06:26:18;;;;;;;59.70;9.88;;;29.70;30.00;;;;;;5069456;28;20053;-65
2023/05/14 06:28:44;;;;;;;35.33;8.13;;;29.60;31.70;;;;;;5064532;28;20067;-63
2023/05/14 06:31:11;;;;;;;40.65;8.23;;;29.40;32.90;;;;;;5063820;28;20391;-62
2023/05/14 06:33:38;;;;;;;42.63;8.15;;;29.40;33.90;;;;;;5067421;28;20043;-62
2023/05/14 06:36:06;;;;;;;39.28;7.57;;;29.30;33.60;;;;;;5069726;28;20502;-68
2023/05/14 06:38:33;;;;;;;40.60;7.43;;;29.20;34.20;;;;;;5072253;28;20045;-69
2023/05/14 06:40:59;;;;;;;41.63;6.82;;;29.10;34.70;;;;;;5072728;28;20052;-67
2023/05/14 06:43:26;;;;;;;32.58;6.72;;;28.80;35.90;;;;;;5068646;28;20056;-65
2023/05/14 06:45:53;;;;;;;47.75;7.60;;;28.70;36.30;;;;;;5063757;28;20057;-64
2023/05/14 06:48:19;;;;;;;39.45;7.10;;;28.60;36.30;;;;;;5063487;28;20044;-65
2023/05/14 06:50:47;;;;;;;38.42;7.32;;;28.50;36.90;;;;;;5069901;28;20040;-68
2023/05/14 06:53:14;;;;;;;57.88;6.97;;;28.50;36.60;;;;;;5068123;28;20107;-69
2023/05/14 06:55:40;;;;;;;33.35;5.72;;;28.40;37.30;;;;;;5069715;28;20044;-65
2023/05/14 06:58:07;;;;;;;36.00;8.25;;;28.30;37.10;;;;;;5070038;28;20625;-63
2023/05/14 07:00:34;;;;;;;35.20;6.93;;;28.10;37.20;;;;;;5062805;28;20049;-62
2023/05/14 07:03:00;;;;;;;42.03;7.40;;;28.00;36.90;;;;;;5063873;28;20080;-63
2023/05/14 07:05:27;;;;;;;51.17;6.50;;;28.00;37.40;;;;;;5064847;28;20054;-64
2023/05/14 07:07:55;;;;;;;47.38;6.85;;;27.90;38.60;;;;;;5063937;28;20045;-67
2023/05/14 07:10:21;;;;;;;60.83;7.07;;;27.80;39.00;;;;;;5070981;28;20067;-65
2023/05/14 07:12:48;;;;;;;39.15;6.28;;;27.70;39.10;;;;;;5065858;28;20049;-63
2023/05/14 07:15:15;;;;;;;41.20;6.82;;;27.60;39.20;;;;;;5058056;28;20531;-68
2023/05/14 07:17:42;;;;;;;51.28;6.97;;;27.40;39.10;;;;;;5052911;28;20050;-65
2023/05/14 07:20:08;;;;;;;46.42;6.63;;;27.30;39.50;;;;;;5048635;28;20065;-65
2023/05/14 07:22:35;;;;;;;33.63;6.63;;;27.20;40.90;;;;;;5055193;28;20157;-64
2023/05/14 07:25:01;;;;;;;42.55;6.93;;;27.20;41.00;;;;;;5059549;28;20137;-64
2023/05/14 07:27:28;;;;;;;45.10;6.47;;;27.20;42.00;;;;;;5054897;28;20043;-65
2023/05/14 07:29:54;;;;;;;43.22;6.55;;;27.10;41.80;;;;;;5050491;28;20079;-64
2023/05/14 07:32:21;;;;;;;46.88;7.28;;;27.00;42.50;;;;;;5052004;28;20054;-65
2023/05/14 07:34:47;;;;;;;39.45;6.22;;;27.00;43.00;;;;;;5053821;28;20070;-63
2023/05/14 07:37:14;;;;;;;43.22;6.10;;;26.80;43.80;;;;;;5051114;28;20052;-65
2023/05/14 07:39:40;;;;;;;54.38;12.90;;;26.80;44.50;;;;;;5049226;28;20140;-65
2023/05/14 07:42:07;;;;;;;45.70;6.35;;;26.70;45.00;;;;;;5049892;28;20057;-64
2023/05/14 07:44:33;;;;;;;46.53;11.10;;;26.60;45.40;;;;;;5051580;28;20049;-64
2023/05/14 07:46:59;;;;;;;50.90;10.98;;;26.60;46.10;;;;;;5052848;28;20063;-63
2023/05/14 07:49:26;;;;;;;33.13;7.28;;;26.60;46.60;;;;;;5055403;28;20042;-65
2023/05/14 07:51:52;;;;;;;53.67;9.18;;;26.60;46.80;;;;;;5052613;28;20050;-65
2023/05/14 07:54:18;;;;;;;38.58;7.88;;;26.50;47.20;;;;;;5054162;28;20102;-66
2023/05/14 07:56:45;;;;;;;52.95;8.35;;;26.50;48.60;;;;;;5055924;28;20062;-65
2023/05/14 07:59:11;;;;;;;55.80;8.50;;;26.40;47.90;;;;;;5051405;28;20611;-63
2023/05/14 08:01:38;;;;;;;49.75;8.55;;;26.50;47.60;;;;;;5052582;28;20062;-64
2023/05/14 08:04:04;;;;;;;47.15;7.72;;;26.40;48.10;;;;;;5056021;28;20188;-63
2023/05/14 08:06:31;;;;;;;38.40;7.40;;;26.40;48.90;;;;;;5056758;28;20158;-63
2023/05/14 08:08:57;;;;;;;45.75;8.73;;;26.40;49.20;;;;;;5052010;28;20515;-62
2023/05/14 08:11:23;;;;;;;54.90;7.60;;;26.30;49.20;;;;;;5050599;28;20105;-62
2023/05/14 08:13:50;;;;;;;43.33;7.53;;;26.20;49.40;;;;;;5053280;28;20057;-67
2023/05/14 08:16:16;;;;;;;35.08;7.97;;;26.20;49.60;;;;;;5052405;28;20085;-63
2023/05/14 08:18:43;;;;;;;56.22;17.17;;;26.20;49.70;;;;;;5048556;28;20069;-64
2023/05/14 08:21:09;;;;;;;38.13;7.32;;;26.20;50.50;;;;;;5050791;28;20111;-63
2023/05/14 08:23:35;;;;;;;34.28;6.55;;;26.20;51.80;;;;;;5049135;28;20156;-64
2023/05/14 08:26:02;;;;;;;38.85;7.78;;;26.10;52.00;;;;;;5050758;28;20052;-63
2023/05/14 08:28:28;;;;;;;34.22;6.43;;;26.00;52.00;;;;;;5049062;28;20066;-62
2023/05/14 08:30:54;;;;;;;40.03;8.05;;;25.90;53.40;;;;;;5051693;28;20047;-63
2023/05/14 08:33:21;;;;;;;40.90;6.97;;;26.00;53.60;;;;;;5051342;28;20510;-64
2023/05/14 08:35:49;;;;;;;30.23;6.78;;;26.00;53.40;;;;;;5048657;28;20071;-65
2023/05/14 08:38:15;;;;;;;35.30;7.45;;;25.90;54.70;;;;;;5053702;28;20078;-64
2023/05/14 08:40:46;;;;;;;37.42;8.07;;;25.80;54.70;;;;;;5055433;28;20431;-64
2023/05/14 08:43:19;;;;;;;33.35;7.68;;;25.80;55.10;;;;;;5052412;28;20636;-64
2023/05/14 08:45:48;;;;;;;35.08;8.20;;;25.80;55.60;;;;;;5050540;28;20072;-63
2023/05/14 08:48:17;;;;;;;32.90;7.38;;;25.80;55.70;;;;;;5048918;28;20143;-63
2023/05/14 08:50:44;;;;;;;38.15;7.55;;;25.80;56.00;;;;;;5054279;28;20138;-65
2023/05/14 08:53:10;;;;;;;29.10;7.68;;;25.60;57.00;;;;;;5051809;28;20068;-64
2023/05/14 08:55:37;;;;;;;36.70;7.50;;;25.60;56.60;;;;;;5051274;28;20060;-63
2023/05/14 08:58:03;;;;;;;32.75;7.30;;;25.70;56.70;;;;;;5053085;28;20098;-62
2023/05/14 09:00:30;;;;;;;27.17;7.05;;;25.80;57.10;;;;;;5055262;28;20132;-65
2023/05/14 09:02:58;;;;;;;32.05;6.57;;;25.60;57.30;;;;;;5049854;28;20176;-66
2023/05/14 09:05:24;;;;;;;32.28;6.55;;;25.60;57.70;;;;;;5052295;28;20063;-66
2023/05/14 09:07:51;;;;;;;35.33;7.07;;;25.60;58.00;;;;;;5058373;28;20063;-64
2023/05/14 09:10:19;;;;;;;35.28;7.32;;;25.60;58.30;;;;;;5048848;28;20064;-64
2023/05/14 09:12:46;;;;;;;32.05;6.13;;;25.70;58.40;;;;;;5051595;28;20061;-65
2023/05/14 09:15:12;;;;;;;32.72;6.85;;;25.70;58.40;;;;;;5051751;28;20059;-64
2023/05/14 09:17:39;;;;;;;52.03;13.45;;;25.60;58.50;;;;;;5052990;28;20140;-65
2023/05/14 09:20:08;;;;;;;33.28;6.85;;;25.60;58.70;;;;;;5052692;28;20058;-64
2023/05/14 09:22:34;;;;;;;33.05;6.28;;;25.60;58.70;;;;;;5054380;28;20113;-64
2023/05/14 09:25:06;;;;;;;31.92;6.13;;;25.60;58.80;;;;;;5052638;28;20056;-65
2023/05/14 09:27:35;;;;;;;30.98;5.78;;;25.50;60.60;;;;;;5046095;28;20481;-65
2023/05/14 09:30:09;;;;;;;30.50;6.43;;;25.40;60.20;;;;;;5046715;28;20055;-66
2023/05/14 09:32:42;;;;;;;24.77;5.47;;;25.40;61.20;;;;;;5061459;28;20056;-65
2023/05/14 09:35:20;;;;;;;27.60;6.63;;;25.30;61.10;;;;;;5051560;28;20059;-63
2023/05/14 09:37:49;;;;;;;26.33;6.22;;;25.30;60.20;;;;;;5049307;28;20804;-63
2023/05/14 09:40:17;;;;;;;31.95;6.50;;;25.30;60.30;;;;;;5054471;28;20061;-65
2023/05/14 09:42:44;;;;;;;24.73;6.07;;;25.20;60.50;;;;;;5048326;28;20517;-65
2023/05/14 09:45:11;;;;;;;32.95;7.38;;;25.20;60.60;;;;;;5049225;28;20152;-65
2023/05/14 09:47:38;;;;;;;39.50;7.78;;;25.40;61.00;;;;;;5046302;28;20057;-65
2023/05/14 09:50:07;;;;;;;31.20;7.78;;;25.30;60.80;;;;;;5049895;28;20066;-64
2023/05/14 09:52:34;;;;;;;32.58;8.25;;;25.30;61.20;;;;;;5053566;28;20055;-65
2023/05/14 09:55:01;;;;;;;37.08;8.70;;;25.30;61.70;;;;;;5051992;28;20067;-65
2023/05/14 09:57:27;;;;;;;34.85;8.18;;;25.10;62.90;;;;;;5048585;28;20163;-66
2023/05/14 09:59:54;;;;;;;44.50;9.48;;;25.10;63.40;;;;;;5057066;28;20061;-65
2023/05/14 10:02:24;;;;;;;35.80;10.07;;;25.20;62.10;;;;;;5046300;28;20143;-66
2023/05/14 10:04:53;;;;;;;38.03;9.25;;;25.20;61.80;;;;;;5046097;28;20079;-66
2023/05/14 10:07:32;;;;;;;41.17;9.20;;;25.20;61.70;;;;;;5063365;28;20060;-66
2023/05/14 10:10:02;;;;;;;47.75;8.82;;;25.20;61.50;;;;;;5045850;28;20093;-64
2023/05/14 10:12:33;;;;;;;42.42;8.73;;;25.20;61.30;;;;;;5045967;28;20065;-66
2023/05/14 10:15:05;;;;;;;38.45;9.75;;;25.10;61.10;;;;;;5054163;28;20057;-64
2023/05/14 10:17:36;;;;;;;39.15;9.80;;;25.10;60.90;;;;;;5048481;28;20064;-65
2023/05/14 10:20:04;;;;;;;41.55;9.32;;;25.10;60.40;;;;;;5051067;28;20571;-66
2023/05/14 10:22:34;;;;;;;45.65;9.40;;;25.10;60.10;;;;;;5045315;28;20082;-66
2023/05/14 10:25:03;;;;;;;39.20;10.00;;;25.10;59.80;;;;;;5047979;28;20065;-65
2023/05/14 10:27:29;;;;;;;26.42;7.43;;;25.10;59.40;;;;;;5051013;28;20057;-66
2023/05/14 10:29:56;;;;;;;31.67;7.38;;;25.00;57.10;;;;;;5055579;28;20428;-66
2023/05/14 10:32:24;;;;;;;28.77;5.95;;;25.00;55.50;;;;;;5049028;28;20113;-65
2023/05/14 10:34:52;;;;;;;21.35;5.38;;;25.00;53.70;;;;;;5055899;28;20432;-66
2023/05/14 10:37:20;;;;;;;23.17;5.60;;;24.90;52.70;;;;;;5050619;28;20070;-65
2023/05/14 10:39:51;;;;;;;25.95;5.15;;;24.90;52.00;;;;;;5056811;28;20062;-65
2023/05/14 10:42:23;;;;;;;28.48;5.78;;;24.90;51.50;;;;;;5053625;28;20077;-66
2023/05/14 10:45:06;;;;;;;39.05;5.90;;;24.80;51.20;;;;;;5055331;28;20097;-65
2023/05/14 10:47:34;;;;;;;21.63;5.00;;;24.80;50.50;;;;;;5048714;28;20066;-65
2023/05/14 10:50:04;;;;;;;20.02;4.88;;;24.90;50.00;;;;;;5053578;28;20080;-65
2023/05/14 10:52:30;;;;;;;26.73;4.75;;;24.80;49.50;;;;;;5055965;28;20097;-65
2023/05/14 10:54:58;;;;;;;24.95;4.30;;;24.90;49.30;;;;;;5058854;28;20071;-66
2023/05/14 10:57:28;;;;;;;20.40;4.45;;;24.80;49.40;;;;;;5057394;28;20191;-65
2023/05/14 10:59:56;;;;;;;24.67;5.22;;;24.70;49.30;;;;;;5056032;28;20094;-66
2023/05/14 11:02:32;;;;;;;21.33;4.07;;;24.70;49.40;;;;;;5059889;28;20095;-65
2023/05/14 11:05:07;;;;;;;18.33;4.07;;;24.60;49.50;;;;;;5050273;28;20578;-64
2023/05/14 11:07:36;;;;;;;19.02;4.35;;;24.60;49.50;;;;;;5049219;28;20164;-64
2023/05/14 11:10:08;;;;;;;23.00;4.40;;;24.60;49.60;;;;;;5049796;28;20158;-66
2023/05/14 11:12:39;;;;;;;20.00;4.10;;;24.50;49.50;;;;;;5051788;28;20085;-65
2023/05/14 11:15:08;;;;;;;19.48;4.30;;;24.50;49.50;;;;;;5060079;28;20135;-66
2023/05/14 11:17:36;;;;;;;18.35;3.90;;;24.50;49.60;;;;;;5057129;28;20081;-66
2023/05/14 11:20:06;;;;;;;24.27;4.43;;;24.40;49.60;;;;;;5050569;28;20060;-65
2023/05/14 11:22:35;;;;;;;23.60;4.10;;;24.40;49.70;;;;;;5053302;28;20143;-64
2023/05/14 11:25:02;;;;;;;15.18;4.20;;;24.40;49.80;;;;;;5057813;28;20167;-65
2023/05/14 11:27:31;;;;;;;20.75;4.03;;;24.30;50.00;;;;;;5056458;28;20097;-65
2023/05/14 11:29:59;;;;;;;21.17;4.68;;;24.30;50.20;;;;;;5062431;28;20406;-65
2023/05/14 11:32:26;;;;;;;20.73;4.07;;;24.30;50.50;;;;;;5060227;28;20070;-65
2023/05/14 11:34:53;;;;;;;23.92;4.95;;;24.20;50.60;;;;;;5057282;28;20493;-64
2023/05/14 11:37:19;;;;;;;27.40;4.97;;;24.20;51.00;;;;;;5058684;28;20084;-66
2023/05/14 11:39:51;;;;;;;17.92;5.35;;;24.20;51.20;;;;;;5052695;28;20150;-63
2023/05/14 11:42:18;;;;;;;25.15;5.18;;;24.20;51.40;;;;;;5057279;28;20136;-64
2023/05/14 11:44:50;;;;;;;22.52;5.00;;;24.20;51.70;;;;;;5053399;28;20522;-65
2023/05/14 11:47:19;;;;;;;25.02;5.82;;;24.10;51.90;;;;;;5050128;28;20415;-64
2023/05/14 11:49:47;;;;;;;25.42;5.95;;;24.00;52.20;;;;;;5052091;28;20437;-65
2023/05/14 11:52:15;;;;;;;35.38;6.05;;;23.90;52.30;;;;;;5050754;28;20067;-67
2023/05/14 11:54:44;;;;;;;27.13;5.80;;;23.90;52.60;;;;;;5050089;28;20069;-66
2023/05/14 11:57:19;;;;;;;28.45;5.90;;;23.90;52.70;;;;;;5058831;28;20089;-65
2023/05/14 11:59:55;;;;;;;28.40;6.15;;;23.90;52.70;;;;;;5049276;28;20175;-67
2023/05/14 12:02:22;;;;;;;32.17;6.50;;;23.80;53.00;;;;;;5057465;28;20118;-66
2023/05/14 12:04:53;;;;;;;36.08;6.75;;;23.70;53.30;;;;;;5053850;28;20509;-67
2023/05/14 12:07:19;;;;;;;23.13;6.28;;;23.60;53.70;;;;;;5056808;28;20063;-65
2023/05/14 12:09:48;;;;;;;35.97;7.00;;;23.60;54.00;;;;;;5054361;28;20086;-66
2023/05/14 12:12:20;;;;;;;30.25;9.25;;;23.60;54.30;;;;;;5048279;28;20085;-67
2023/05/14 12:14:48;;;;;;;28.70;8.85;;;23.50;54.50;;;;;;5050770;28;20072;-68
2023/05/14 12:17:19;;;;;;;37.78;8.90;;;23.50;55.00;;;;;;5047772;28;20059;-67
2023/05/14 12:19:48;;;;;;;32.83;8.77;;;23.50;55.50;;;;;;5052421;28;20080;-68
2023/05/14 12:22:17;;;;;;;32.58;8.10;;;23.30;55.90;;;;;;5051728;28;20079;-67
2023/05/14 12:24:52;;;;;;;32.90;8.27;;;23.40;56.30;;;;;;5050438;28;20518;-69
2023/05/14 12:27:23;;;;;;;25.25;7.55;;;23.40;56.60;;;;;;5053869;28;20179;-66
2023/05/14 12:29:57;;;;;;;23.90;7.60;;;23.40;56.90;;;;;;5064248;28;20067;-66
2023/05/14 12:32:25;;;;;;;25.70;7.88;;;23.30;57.00;;;;;;5048741;28;20761;-67
2023/05/14 12:34:51;;;;;;;34.35;10.90;;;23.20;57.40;;;;;;5055242;28;20123;-68
2023/05/14 12:37:18;;;;;;;32.65;10.70;;;23.30;57.80;;;;;;5052943;28;20074;-66
2023/05/14 12:39:44;;;;;;;30.40;10.35;;;23.20;58.30;;;;;;5052726;28;20066;-66
2023/05/14 12:42:11;;;;;;;34.08;10.90;;;23.20;58.80;;;;;;5051998;28;20066;-65